createdAt,value
2023-11-16T00:00:37.827Z,85.95
2023-11-16T00:03:06.842Z,85.92
2023-11-16T00:05:36.914Z,85.97
2023-11-16T00:08:08.754Z,86.21
2023-11-16T00:10:36.156Z,86.47
2023-11-16T00:13:06.272Z,86.15
2023-11-16T00:15:34.891Z,86.18
2023-11-16T00:18:05.241Z,86.42
2023-11-16T00:20:39.334Z,85.68
2023-11-16T00:23:07.311Z,85.16
2023-11-16T00:25:34.573Z,85.04
2023-11-16T00:28:02.052Z,85.58
2023-11-16T00:30:29.122Z,85.46
2023-11-16T00:32:56.242Z,85.59
2023-11-16T00:35:23.573Z,84.90
2023-11-16T00:37:54.180Z,84.66
2023-11-16T00:40:23.893Z,85.10
2023-11-16T00:42:52.335Z,84.47
2023-11-16T00:45:23.543Z,85.29
2023-11-16T00:47:50.682Z,84.87
2023-11-16T00:50:17.678Z,84.83
2023-11-16T00:52:48.333Z,84.60
2023-11-16T00:55:16.748Z,84.96
2023-11-16T00:57:49.371Z,85.23
2023-11-16T01:00:17.432Z,85.49
2023-11-16T01:02:44.571Z,84.95
2023-11-16T01:05:11.652Z,85.56
2023-11-16T01:07:39.978Z,85.58
2023-11-16T01:10:08.754Z,85.76
2023-11-16T01:12:36.520Z,85.99
2023-11-16T01:15:11.715Z,85.44
2023-11-16T01:17:40.281Z,86.29
2023-11-16T01:20:19.333Z,85.92
2023-11-16T01:23:02.491Z,86.10
2023-11-16T01:25:33.807Z,85.47
2023-11-16T01:28:02.288Z,86.18
2023-11-16T01:30:30.071Z,86.06
2023-11-16T01:32:58.269Z,86.13
2023-11-16T01:35:26.912Z,86.08
2023-11-16T01:37:57.541Z,86.33
2023-11-16T01:40:27.510Z,86.04
2023-11-16T01:42:58.685Z,86.55
2023-11-16T01:45:37.391Z,86.33
2023-11-16T01:48:08.565Z,86.27
2023-11-16T01:50:38.669Z,86.42
2023-11-16T01:53:12.277Z,86.56
2023-11-16T01:55:43.163Z,86.68
2023-11-16T01:58:11.225Z,86.77
2023-11-16T02:00:44.247Z,86.74
2023-11-16T02:03:14.678Z,87.09
2023-11-16T02:05:42.345Z,86.56
2023-11-16T02:08:10.919Z,87.02
2023-11-16T02:10:39.648Z,87.08
2023-11-16T02:13:26.974Z,87.28
2023-11-16T02:15:57.224Z,87.16
2023-11-16T02:18:27.248Z,86.85
2023-11-16T02:20:56.434Z,86.88
2023-11-16T02:23:23.965Z,86.82
2023-11-16T02:25:58.339Z,87.48
2023-11-16T02:28:25.694Z,87.92
2023-11-16T02:30:53.600Z,87.24
2023-11-16T02:33:21.212Z,87.40
2023-11-16T02:35:49.791Z,87.08
2023-11-16T02:38:18.259Z,87.76
2023-11-16T02:40:45.986Z,87.18
2023-11-16T02:43:13.387Z,87.65
2023-11-16T02:45:41.077Z,87.78
2023-11-16T02:48:08.269Z,87.53
2023-11-16T02:50:35.940Z,87.39
2023-11-16T02:53:04.571Z,87.91
2023-11-16T02:55:34.425Z,87.41
2023-11-16T02:58:04.119Z,87.58
2023-11-16T03:00:33.686Z,87.54
2023-11-16T03:03:03.743Z,87.29
2023-11-16T03:05:32.986Z,87.49
2023-11-16T03:08:00.252Z,88.14
2023-11-16T03:10:29.877Z,87.84
2023-11-16T03:12:57.457Z,88.12
2023-11-16T03:15:24.442Z,88.13
2023-11-16T03:17:51.598Z,88.11
2023-11-16T03:20:22.132Z,87.77
2023-11-16T03:22:50.014Z,87.78
2023-11-16T03:25:17.299Z,88.03
2023-11-16T03:27:45.947Z,88.03
2023-11-16T03:30:17.425Z,87.68
2023-11-16T03:32:46.951Z,87.87
2023-11-16T03:35:17.261Z,88.20
2023-11-16T03:37:47.105Z,88.16
2023-11-16T03:40:14.159Z,87.72
2023-11-16T03:42:42.360Z,88.41
2023-11-16T03:45:12.328Z,88.44
2023-11-16T03:47:39.595Z,88.42
2023-11-16T03:50:07.255Z,88.19
2023-11-16T03:52:34.628Z,88.11
2023-11-16T03:55:01.698Z,88.40
2023-11-16T03:57:29.044Z,87.88
2023-11-16T03:59:56.253Z,87.44
2023-11-16T04:02:23.383Z,87.66
2023-11-16T04:04:53.502Z,87.88
2023-11-16T04:07:20.624Z,87.52
2023-11-16T04:09:48.213Z,87.34
2023-11-16T04:12:16.702Z,86.65
2023-11-16T04:14:44.706Z,86.75
2023-11-16T04:17:14.924Z,86.70
2023-11-16T04:19:43.207Z,86.91
2023-11-16T04:22:11.752Z,86.43
2023-11-16T04:24:42.856Z,85.94
2023-11-16T04:27:10.959Z,85.83
2023-11-16T04:29:38.880Z,85.92
2023-11-16T04:32:07.039Z,85.84
2023-11-16T04:34:34.319Z,85.96
2023-11-16T04:37:08.353Z,85.70
2023-11-16T04:39:35.374Z,85.84
2023-11-16T04:42:02.593Z,85.90
2023-11-16T04:44:29.734Z,85.55
2023-11-16T04:46:57.492Z,85.59
2023-11-16T04:49:24.730Z,85.54
2023-11-16T04:51:52.053Z,85.84
2023-11-16T04:54:21.753Z,85.79
2023-11-16T04:56:48.755Z,85.23
2023-11-16T04:59:15.856Z,84.87
2023-11-16T05:01:42.919Z,84.53
2023-11-16T05:04:10.162Z,84.12
2023-11-16T05:06:42.161Z,83.92
2023-11-16T05:09:09.896Z,83.92
2023-11-16T05:11:39.152Z,84.16
2023-11-16T05:14:06.086Z,84.29
2023-11-16T05:16:32.957Z,84.51
2023-11-16T05:18:59.982Z,84.27
2023-11-16T05:21:27.712Z,84.34
2023-11-16T05:23:54.781Z,83.49
2023-11-16T05:26:21.857Z,83.86
2023-11-16T05:28:51.094Z,83.83
2023-11-16T05:31:18.098Z,84.28
2023-11-16T05:33:45.136Z,83.98
2023-11-16T05:36:12.735Z,83.93
2023-11-16T05:38:40.039Z,84.22
2023-11-16T05:41:08.182Z,84.58
2023-11-16T05:43:36.208Z,84.16
2023-11-16T05:46:03.239Z,83.64
2023-11-16T05:48:30.263Z,84.02
2023-11-16T05:50:58.454Z,83.26
2023-11-16T05:53:25.421Z,83.97
2023-11-16T05:55:53.819Z,84.16
2023-11-16T05:58:21.267Z,83.39
2023-11-16T06:00:48.939Z,84.28
2023-11-16T06:03:17.482Z,84.50
2023-11-16T06:05:44.637Z,83.58
2023-11-16T06:08:11.886Z,83.63
2023-11-16T06:10:42.817Z,83.50
2023-11-16T06:13:11.051Z,83.85
2023-11-16T06:15:38.171Z,84.27
2023-11-16T06:18:15.502Z,84.78
2023-11-16T06:20:47.839Z,83.94
2023-11-16T06:23:15.044Z,85.17
2023-11-16T06:25:43.371Z,84.20
2023-11-16T06:28:11.444Z,84.35
2023-11-16T06:30:40.457Z,84.74
2023-11-16T06:33:07.910Z,84.87
2023-11-16T06:35:34.945Z,83.95
2023-11-16T06:38:02.579Z,83.83
2023-11-16T06:40:31.871Z,83.95
2023-11-16T06:43:00.265Z,83.71
2023-11-16T06:45:30.701Z,84.16
2023-11-16T06:48:03.429Z,84.43
2023-11-16T06:50:35.269Z,84.64
2023-11-16T06:53:06.868Z,83.82
2023-11-16T06:55:34.042Z,84.22
2023-11-16T06:58:03.576Z,84.63
2023-11-16T07:00:32.137Z,84.36
2023-11-16T07:02:59.449Z,84.81
2023-11-16T07:05:26.912Z,84.97
2023-11-16T07:07:54.064Z,85.14
2023-11-16T07:10:21.374Z,85.35
2023-11-16T07:12:48.702Z,85.45
2023-11-16T07:15:16.389Z,85.42
2023-11-16T07:17:44.695Z,87.30
2023-11-16T07:20:13.347Z,87.04
2023-11-16T07:22:42.393Z,87.56
2023-11-16T07:25:13.401Z,88.17
2023-11-16T07:27:40.592Z,87.36
2023-11-16T07:30:08.880Z,87.93
2023-11-16T07:32:36.621Z,88.19
2023-11-16T07:35:16.136Z,88.45
2023-11-16T07:37:48.697Z,88.45
2023-11-16T07:40:21.619Z,88.58
2023-11-16T07:42:48.756Z,89.37
2023-11-16T07:45:16.703Z,89.80
2023-11-16T07:47:46.153Z,89.40
2023-11-16T07:50:17.046Z,90.36
2023-11-16T07:52:45.101Z,90.09
2023-11-16T07:55:17.717Z,89.90
2023-11-16T07:57:51.227Z,89.64
2023-11-16T08:00:31.671Z,90.25
2023-11-16T08:03:19.219Z,90.04
2023-11-16T08:05:48.493Z,89.85
2023-11-16T08:08:20.446Z,89.96
2023-11-16T08:10:52.475Z,89.82
2023-11-16T08:13:19.998Z,89.79
2023-11-16T08:15:55.060Z,89.43
2023-11-16T08:18:23.150Z,89.13
2023-11-16T08:20:55.192Z,89.06
2023-11-16T08:23:26.936Z,89.13
2023-11-16T08:25:59.208Z,89.19
2023-11-16T08:28:29.815Z,88.63
2023-11-16T08:31:00.015Z,88.89
2023-11-16T08:34:18.009Z,87.84
2023-11-16T08:37:02.726Z,87.43
2023-11-16T08:39:30.663Z,86.86
2023-11-16T08:42:54.520Z,86.55
2023-11-16T08:45:22.828Z,86.19
2023-11-16T08:48:00.898Z,86.65
2023-11-16T08:50:29.086Z,86.38
2023-11-16T08:52:58.848Z,85.98
2023-11-16T08:55:27.408Z,86.00
2023-11-16T08:58:00.781Z,85.75
2023-11-16T09:00:29.530Z,85.72
2023-11-16T09:03:05.029Z,84.02
2023-11-16T09:05:34.031Z,84.30
2023-11-16T09:08:02.480Z,83.66
2023-11-16T09:10:33.464Z,83.26
2023-11-16T09:13:02.067Z,83.33
2023-11-16T09:15:30.525Z,83.65
2023-11-16T09:17:59.660Z,83.90
2023-11-16T09:20:29.146Z,83.54
2023-11-16T09:22:59.099Z,83.36
2023-11-16T09:25:32.883Z,83.35
2023-11-16T09:28:02.443Z,83.71
2023-11-16T09:30:44.579Z,82.98
2023-11-16T09:33:14.256Z,82.73
2023-11-16T09:36:06.521Z,82.84
2023-11-16T09:38:37.833Z,83.46
2023-11-16T09:41:27.272Z,82.69
2023-11-16T09:44:31.482Z,81.93
2023-11-16T09:47:04.818Z,81.74
2023-11-16T09:53:37.025Z,82.09
2023-11-16T09:56:06.212Z,81.38
2023-11-16T09:58:41.007Z,80.31
2023-11-16T10:01:20.233Z,79.68
2023-11-16T10:03:49.977Z,79.81
2023-11-16T10:06:22.042Z,80.03
2023-11-16T10:08:53.116Z,80.35
2023-11-16T10:11:32.569Z,79.92
2023-11-16T10:14:00.825Z,80.28
2023-11-16T10:16:31.227Z,79.89
2023-11-16T10:19:08.923Z,80.26
2023-11-16T10:21:43.465Z,79.79
2023-11-16T10:24:13.645Z,79.95
2023-11-16T10:26:41.411Z,80.21
2023-11-16T10:29:12.578Z,80.17
2023-11-16T10:31:47.765Z,80.41
2023-11-16T10:34:19.440Z,80.31
2023-11-16T10:36:48.100Z,80.11
2023-11-16T10:39:17.867Z,79.77
2023-11-16T10:41:46.260Z,80.12
2023-11-16T10:44:15.211Z,79.90
2023-11-16T10:46:44.686Z,80.07
2023-11-16T10:49:14.881Z,80.42
2023-11-16T10:51:48.614Z,81.05
2023-11-16T10:54:21.192Z,80.31
2023-11-16T10:56:54.873Z,80.26
2023-11-16T10:59:29.023Z,80.00
2023-11-16T11:02:02.246Z,81.03
2023-11-16T11:04:29.832Z,80.39
2023-11-16T11:06:58.148Z,80.85
2023-11-16T11:09:47.615Z,80.04
2023-11-16T11:12:17.174Z,80.98
2023-11-16T11:14:52.897Z,80.56
2023-11-16T11:17:31.452Z,80.09
2023-11-16T11:20:00.672Z,79.90
2023-11-16T11:22:32.962Z,81.10
2023-11-16T11:25:07.502Z,80.57
2023-11-16T11:27:34.675Z,80.89
2023-11-16T11:30:12.289Z,80.54
2023-11-16T11:33:00.858Z,81.14
2023-11-16T11:35:39.052Z,82.08
2023-11-16T11:38:20.968Z,81.16
2023-11-16T11:41:00.228Z,82.65
2023-11-16T11:43:28.269Z,82.56
2023-11-16T11:45:59.201Z,81.69
2023-11-16T11:48:28.165Z,82.89
2023-11-16T11:51:00.744Z,83.56
2023-11-16T11:53:31.373Z,83.36
2023-11-16T11:56:00.390Z,82.90
2023-11-16T11:58:30.324Z,83.37
2023-11-16T12:01:05.375Z,83.60
2023-11-16T12:03:34.977Z,83.00
2023-11-16T12:06:04.323Z,84.17
2023-11-16T12:08:52.692Z,83.99
2023-11-16T12:11:27.108Z,83.32
2023-11-16T12:13:56.869Z,83.66
2023-11-16T12:16:25.440Z,83.83
2023-11-16T12:18:55.322Z,83.78
2023-11-16T12:21:24.685Z,84.23
2023-11-16T12:23:56.640Z,84.90
2023-11-16T12:26:30.033Z,84.53
2023-11-16T12:29:01.473Z,84.45
2023-11-16T12:31:29.032Z,84.35
2023-11-16T12:33:58.824Z,84.39
2023-11-16T12:36:32.716Z,84.79
2023-11-16T12:39:00.334Z,85.35
2023-11-16T12:41:27.754Z,85.37
2023-11-16T12:43:54.929Z,85.58
2023-11-16T12:46:26.577Z,86.17
2023-11-16T12:48:59.031Z,86.67
2023-11-16T12:51:33.362Z,86.58
2023-11-16T12:54:09.864Z,87.32
2023-11-16T12:56:39.308Z,87.82
2023-11-16T12:59:11.025Z,87.01
2023-11-16T13:01:52.005Z,88.08
2023-11-16T13:04:20.945Z,87.80
2023-11-16T13:06:51.658Z,88.14
2023-11-16T13:09:26.199Z,88.45
2023-11-16T13:12:00.518Z,89.10
2023-11-16T13:14:33.039Z,89.38
2023-11-16T13:17:05.172Z,89.68
2023-11-16T13:19:32.508Z,90.07
2023-11-16T13:22:02.979Z,89.98
2023-11-16T13:24:33.172Z,89.73
2023-11-16T13:27:00.786Z,90.27
2023-11-16T13:29:30.048Z,90.55
2023-11-16T13:32:00.551Z,90.88
2023-11-16T13:34:27.736Z,90.29
2023-11-16T13:36:56.947Z,90.52
2023-11-16T13:39:24.348Z,90.47
2023-11-16T13:41:51.597Z,90.82
2023-11-16T13:44:22.220Z,91.04
2023-11-16T13:46:51.214Z,91.68
2023-11-16T13:49:23.574Z,91.43
2023-11-16T13:52:00.078Z,91.32
2023-11-16T13:54:27.272Z,90.69
2023-11-16T13:56:57.160Z,91.39
2023-11-16T13:59:24.682Z,90.72
2023-11-16T14:01:51.851Z,91.16
2023-11-16T14:04:22.694Z,91.39
2023-11-16T14:06:50.133Z,91.57
2023-11-16T14:09:21.440Z,91.35
2023-11-16T14:11:51.637Z,90.72
2023-11-16T14:14:18.751Z,90.76
2023-11-16T14:16:46.179Z,90.01
2023-11-16T14:19:13.425Z,91.27
2023-11-16T14:21:43.734Z,90.26
2023-11-16T14:24:28.418Z,91.13
2023-11-16T14:27:01.231Z,90.43
2023-11-16T14:29:30.556Z,90.92
2023-11-16T14:31:57.766Z,90.32
2023-11-16T14:34:25.206Z,89.94
2023-11-16T14:36:55.154Z,90.12
2023-11-16T14:39:30.969Z,90.45
2023-11-16T14:41:58.277Z,90.61
2023-11-16T14:44:25.708Z,89.72
2023-11-16T14:47:15.132Z,88.87
2023-11-16T14:49:46.053Z,88.98
2023-11-16T14:52:16.120Z,89.25
2023-11-16T14:54:46.303Z,88.88
2023-11-16T14:57:16.065Z,88.00
2023-11-16T14:59:50.253Z,87.68
2023-11-16T15:02:21.385Z,87.90
2023-11-16T15:04:56.988Z,87.20
2023-11-16T15:07:29.622Z,87.84
2023-11-16T15:09:57.563Z,87.56
2023-11-16T15:12:27.822Z,87.35
2023-11-16T15:15:02.030Z,88.23
2023-11-16T15:17:29.942Z,87.78
2023-11-16T15:19:58.435Z,87.08
2023-11-16T15:22:35.017Z,86.64
2023-11-16T15:25:05.073Z,87.21
2023-11-16T15:27:41.057Z,86.87
2023-11-16T15:30:15.119Z,86.50
2023-11-16T15:32:45.540Z,86.96
2023-11-16T15:35:19.078Z,87.41
2023-11-16T15:37:48.044Z,87.17
2023-11-16T15:40:16.762Z,87.10
2023-11-16T15:42:45.364Z,87.03
2023-11-16T15:45:16.685Z,87.03
2023-11-16T15:47:43.962Z,87.44
2023-11-16T15:50:13.549Z,87.27
2023-11-16T15:52:40.809Z,87.14
2023-11-16T15:55:15.122Z,87.20
2023-11-16T15:57:47.309Z,87.58
2023-11-16T16:00:22.753Z,87.88
2023-11-16T16:02:56.003Z,87.68
2023-11-16T16:05:44.450Z,88.34
2023-11-16T16:08:20.706Z,88.21
2023-11-16T16:10:50.409Z,88.89
2023-11-16T16:13:17.662Z,88.73
2023-11-16T16:15:53.284Z,88.91
2023-11-16T16:18:20.636Z,88.93
2023-11-16T16:20:50.758Z,88.90
2023-11-16T16:23:21.626Z,88.79
2023-11-16T16:25:50.029Z,88.70
2023-11-16T16:28:23.108Z,88.48
2023-11-16T16:30:50.295Z,89.05
2023-11-16T16:33:17.892Z,89.24
2023-11-16T16:35:45.842Z,89.91
2023-11-16T16:38:16.890Z,89.46
2023-11-16T16:40:50.595Z,89.90
2023-11-16T16:43:19.248Z,90.30
2023-11-16T16:45:48.651Z,89.56
2023-11-16T16:48:24.459Z,89.83
2023-11-16T16:50:54.399Z,90.25
2023-11-16T16:53:27.744Z,90.26
2023-11-16T16:55:57.227Z,89.48
2023-11-16T16:58:26.689Z,90.87
2023-11-16T17:00:53.929Z,90.07
2023-11-16T17:03:21.793Z,90.17
2023-11-16T17:05:53.688Z,90.79
2023-11-16T17:08:23.329Z,90.52
2023-11-16T17:10:56.592Z,90.86
2023-11-16T17:13:32.105Z,90.66
2023-11-16T17:16:05.475Z,91.06
2023-11-16T17:18:40.206Z,91.24
2023-11-16T17:21:08.514Z,90.86
2023-11-16T17:23:36.017Z,90.92
2023-11-16T17:26:09.006Z,90.81
2023-11-16T17:28:41.724Z,91.11
2023-11-16T17:31:09.300Z,91.44
2023-11-16T17:33:39.872Z,91.24
2023-11-16T17:36:08.135Z,91.60
2023-11-16T17:38:37.046Z,91.86
2023-11-16T17:41:09.352Z,91.31
2023-11-16T17:43:41.497Z,91.94
2023-11-16T17:46:11.666Z,91.66
2023-11-16T17:48:38.911Z,91.47
2023-11-16T17:51:11.781Z,91.24
2023-11-16T17:53:48.721Z,91.66
2023-11-16T17:56:21.281Z,92.44
2023-11-16T17:58:48.996Z,91.95
2023-11-16T18:01:19.195Z,92.41
2023-11-16T18:03:57.157Z,92.90
2023-11-16T18:06:34.058Z,93.12
2023-11-16T18:09:07.806Z,93.06
2023-11-16T18:11:38.010Z,92.98
2023-11-16T18:14:08.845Z,92.66
2023-11-16T18:16:42.039Z,92.79
2023-11-16T18:19:11.259Z,93.73
2023-11-16T18:21:43.768Z,93.67
2023-11-16T18:24:18.591Z,93.04
2023-11-16T18:26:46.575Z,93.34
2023-11-16T18:29:21.287Z,92.95
2023-11-16T18:31:54.448Z,93.26
2023-11-16T18:34:45.293Z,92.83
2023-11-16T18:37:13.816Z,92.65
2023-11-16T18:39:41.189Z,92.96
2023-11-16T18:42:11.702Z,93.15
2023-11-16T18:44:39.816Z,93.43
2023-11-16T18:47:12.891Z,92.62
2023-11-16T18:49:44.195Z,92.44
2023-11-16T18:52:12.691Z,92.06
2023-11-16T18:54:43.986Z,92.53
2023-11-16T18:57:16.876Z,91.83
2023-11-16T18:59:45.368Z,91.76
2023-11-16T19:02:16.813Z,91.33
2023-11-16T19:04:45.380Z,90.94
2023-11-16T19:07:13.549Z,91.47
2023-11-16T19:09:42.145Z,91.07
2023-11-16T19:12:14.945Z,91.80
2023-11-16T19:14:45.993Z,92.26
2023-11-16T19:17:19.590Z,92.16
2023-11-16T19:19:50.037Z,92.21
2023-11-16T19:22:23.102Z,91.41
2023-11-16T19:24:53.360Z,92.29
2023-11-16T19:27:29.632Z,92.22
2023-11-16T19:30:02.402Z,91.75
2023-11-16T19:32:38.604Z,92.14
2023-11-16T19:35:13.166Z,92.57
2023-11-16T19:37:56.642Z,91.99
2023-11-16T19:40:41.656Z,91.96
2023-11-16T19:43:15.670Z,93.00
2023-11-16T19:45:43.283Z,92.56
2023-11-16T19:48:13.466Z,91.95
2023-11-16T19:50:43.567Z,92.08
2023-11-16T19:53:13.785Z,92.15
2023-11-16T19:55:41.091Z,92.34
2023-11-16T19:58:13.163Z,92.17
2023-11-16T20:00:42.468Z,92.72
2023-11-16T20:03:10.128Z,92.26
2023-11-16T20:05:37.490Z,92.45
2023-11-16T20:08:04.941Z,92.96
2023-11-16T20:10:37.994Z,92.65
2023-11-16T20:13:07.478Z,93.41
2023-11-16T20:15:35.847Z,93.56
2023-11-16T20:18:03.179Z,92.63
2023-11-16T20:20:36.172Z,93.74
2023-11-16T20:23:08.231Z,93.68
2023-11-16T20:25:35.740Z,92.92
2023-11-16T20:28:02.950Z,93.86
2023-11-16T20:30:32.438Z,93.14
2023-11-16T20:33:01.283Z,93.45
2023-11-16T20:35:28.897Z,93.62
2023-11-16T20:37:56.012Z,93.98
2023-11-16T20:40:23.271Z,93.45
2023-11-16T20:42:51.081Z,93.30
2023-11-16T20:45:21.596Z,93.17
2023-11-16T20:47:51.079Z,92.53
2023-11-16T20:50:20.950Z,92.40
2023-11-16T20:52:48.395Z,93.10
2023-11-16T20:55:16.162Z,93.86
2023-11-16T20:57:43.567Z,92.81
2023-11-16T21:00:15.376Z,93.58
2023-11-16T21:02:43.757Z,92.92
2023-11-16T21:05:21.700Z,92.93
2023-11-16T21:07:50.754Z,92.59
2023-11-16T21:10:18.265Z,92.89
2023-11-16T21:12:50.018Z,92.83
2023-11-16T21:15:17.661Z,92.03
2023-11-16T21:17:45.693Z,91.55
2023-11-16T21:20:16.620Z,92.03
2023-11-16T21:22:44.799Z,92.04
2023-11-16T21:25:13.271Z,92.10
2023-11-16T21:27:41.251Z,91.64
2023-11-16T21:30:17.466Z,91.91
2023-11-16T21:32:44.958Z,91.29
2023-11-16T21:35:15.971Z,90.48
2023-11-16T21:37:45.738Z,90.93
2023-11-16T21:40:15.798Z,90.97
2023-11-16T21:42:45.558Z,90.71
2023-11-16T21:45:16.158Z,90.93
2023-11-16T21:47:44.910Z,90.70
2023-11-16T21:50:17.939Z,90.72
2023-11-16T21:52:45.130Z,90.60
2023-11-16T21:55:13.003Z,90.71
2023-11-16T21:57:43.016Z,91.13
2023-11-16T22:00:11.593Z,90.67
2023-11-16T22:02:38.937Z,90.50
2023-11-16T22:05:14.037Z,90.29
2023-11-16T22:07:46.228Z,90.50
2023-11-16T22:10:18.153Z,90.53
2023-11-16T22:12:52.240Z,90.99
2023-11-16T22:15:20.678Z,90.47
2023-11-16T22:17:51.987Z,91.52
2023-11-16T22:20:21.814Z,90.89
2023-11-16T22:22:50.446Z,90.92
2023-11-16T22:25:19.002Z,91.13
2023-11-16T22:27:48.392Z,90.79
2023-11-16T22:30:24.605Z,91.47
2023-11-16T22:32:52.127Z,91.37
2023-11-16T22:35:19.956Z,91.44
2023-11-16T22:37:47.821Z,91.37
2023-11-16T22:40:18.515Z,91.75
2023-11-16T22:42:51.847Z,91.81
2023-11-16T22:45:41.584Z,91.54
2023-11-16T22:48:08.779Z,91.78
2023-11-16T22:50:36.255Z,92.24
2023-11-16T22:53:04.763Z,91.57
2023-11-16T22:55:32.650Z,91.53
2023-11-16T22:58:02.756Z,91.72
2023-11-16T23:00:29.751Z,91.60
2023-11-16T23:02:57.053Z,91.97
2023-11-16T23:05:24.183Z,91.55
2023-11-16T23:07:52.461Z,92.14
2023-11-16T23:10:20.229Z,91.58
2023-11-16T23:12:53.494Z,91.97
2023-11-16T23:15:22.741Z,91.43
2023-11-16T23:17:50.908Z,91.35
2023-11-16T23:20:18.959Z,91.34
2023-11-16T23:22:48.012Z,91.33
2023-11-16T23:25:16.565Z,91.30
2023-11-16T23:27:47.302Z,91.39
2023-11-16T23:30:14.519Z,91.23
2023-11-16T23:32:42.657Z,91.46
2023-11-16T23:35:11.558Z,91.69
2023-11-16T23:37:38.905Z,91.16
2023-11-16T23:40:07.450Z,91.26
2023-11-16T23:42:35.397Z,91.35
2023-11-16T23:45:03.207Z,91.92
2023-11-16T23:47:30.227Z,92.16
2023-11-16T23:49:57.554Z,92.05
2023-11-16T23:52:24.715Z,92.26
2023-11-16T23:54:52.078Z,91.68
2023-11-16T23:57:19.241Z,92.22
2023-11-16T23:59:48.042Z,91.43
